createdAt,value
2023-02-23T00:01:58.229Z,17.05
2023-02-23T00:04:25.522Z,16.98
2023-02-23T00:06:53.500Z,18.20
2023-02-23T00:09:24.763Z,17.65
2023-02-23T00:11:57.474Z,17.15
2023-02-23T00:14:31.178Z,17.45
2023-02-23T00:17:00.141Z,17.15
2023-02-23T00:19:27.657Z,19.13
2023-02-23T00:21:56.306Z,19.85
2023-02-23T00:24:27.069Z,19.05
2023-02-23T00:26:54.460Z,19.10
2023-02-23T00:29:24.795Z,20.20
2023-02-23T00:31:52.692Z,21.52
2023-02-23T00:34:21.586Z,20.00
2023-02-23T00:36:55.032Z,19.45
2023-02-23T00:39:26.333Z,20.38
2023-02-23T00:41:55.684Z,19.50
2023-02-23T00:44:23.845Z,19.70
2023-02-23T00:46:52.395Z,20.48
2023-02-23T00:49:21.885Z,20.17
2023-02-23T00:51:49.506Z,19.08
2023-02-23T00:54:17.311Z,20.85
2023-02-23T00:56:45.937Z,20.17
2023-02-23T00:59:14.350Z,20.75
2023-02-23T01:01:42.136Z,20.17
2023-02-23T01:04:11.347Z,19.52
2023-02-23T01:06:40.642Z,19.75
2023-02-23T01:09:14.131Z,20.63
2023-02-23T01:11:42.153Z,19.23
2023-02-23T01:14:10.549Z,18.98
2023-02-23T01:16:38.978Z,18.40
2023-02-23T01:19:07.028Z,18.85
2023-02-23T01:21:39.863Z,17.70
2023-02-23T01:24:10.284Z,17.83
2023-02-23T01:26:40.533Z,17.50
2023-02-23T01:29:16.666Z,17.45
2023-02-23T01:31:47.694Z,17.48
2023-02-23T01:34:19.717Z,16.45
2023-02-23T01:36:47.340Z,17.90
2023-02-23T01:39:17.888Z,16.85
2023-02-23T01:41:45.630Z,15.95
2023-02-23T01:44:13.123Z,14.90
2023-02-23T01:46:43.764Z,15.95
2023-02-23T01:49:20.273Z,15.02
2023-02-23T01:51:55.820Z,15.45
2023-02-23T01:54:26.593Z,13.57
2023-02-23T01:56:58.474Z,13.80
2023-02-23T01:59:34.254Z,15.00
2023-02-23T02:02:05.234Z,14.43
2023-02-23T02:04:46.697Z,14.27
2023-02-23T02:07:23.617Z,13.52
2023-02-23T02:10:22.093Z,14.27
2023-02-23T02:12:52.838Z,13.90
2023-02-23T02:15:22.564Z,13.55
2023-02-23T02:18:23.783Z,14.02
2023-02-23T02:21:04.716Z,13.60
2023-02-23T02:23:59.442Z,13.38
2023-02-23T02:26:45.395Z,12.10
2023-02-23T02:29:31.308Z,13.30
2023-02-23T02:32:14.152Z,12.90
2023-02-23T02:34:42.670Z,13.05
2023-02-23T02:37:36.337Z,13.18
2023-02-23T02:40:21.458Z,12.60
2023-02-23T02:43:00.586Z,12.15
2023-02-23T02:45:43.705Z,11.43
2023-02-23T02:48:49.810Z,11.32
2023-02-23T02:51:26.089Z,12.18
2023-02-23T02:54:07.528Z,11.20
2023-02-23T02:56:40.386Z,11.15
2023-02-23T02:59:33.263Z,9.70
2023-02-23T03:02:19.657Z,9.50
2023-02-23T03:05:05.823Z,9.50
2023-02-23T03:08:11.589Z,9.98
2023-02-23T03:11:14.232Z,9.45
2023-02-23T03:14:06.560Z,9.15
2023-02-23T03:17:07.685Z,8.98
2023-02-23T03:20:13.561Z,8.82
2023-02-23T03:23:09.730Z,9.68
2023-02-23T03:26:13.345Z,9.32
2023-02-23T03:29:14.469Z,10.15
2023-02-23T03:32:07.224Z,10.93
2023-02-23T03:35:18.416Z,12.05
2023-02-23T03:38:12.969Z,10.63
2023-02-23T03:41:01.035Z,10.70
2023-02-23T03:43:51.658Z,11.73
2023-02-23T03:46:38.679Z,12.13
2023-02-23T03:49:27.376Z,10.85
2023-02-23T03:52:18.815Z,13.85
2023-02-23T03:55:10.273Z,12.93
2023-02-23T03:57:57.861Z,11.63
2023-02-23T04:00:48.971Z,12.52
2023-02-23T04:03:36.920Z,12.10
2023-02-23T04:06:26.518Z,12.07
2023-02-23T04:09:14.771Z,12.60
2023-02-23T04:12:20.755Z,13.52
2023-02-23T04:15:01.835Z,14.45
2023-02-23T04:17:29.998Z,14.45
2023-02-23T04:19:57.488Z,15.00
2023-02-23T04:22:25.801Z,14.60
2023-02-23T04:24:53.284Z,13.95
2023-02-23T04:27:20.574Z,13.52
2023-02-23T04:29:47.880Z,13.50
2023-02-23T04:32:18.610Z,13.35
2023-02-23T04:34:46.140Z,13.77
2023-02-23T04:37:13.693Z,13.85
2023-02-23T04:39:42.933Z,12.85
2023-02-23T04:42:10.626Z,13.60
2023-02-23T04:44:38.061Z,14.30
2023-02-23T04:47:05.509Z,14.10
2023-02-23T04:49:32.929Z,13.77
2023-02-23T04:52:00.351Z,15.57
2023-02-23T04:54:27.709Z,13.18
2023-02-23T04:56:55.140Z,13.93
2023-02-23T04:59:22.604Z,14.02
2023-02-23T05:01:49.999Z,14.43
2023-02-23T05:04:17.428Z,12.65
2023-02-23T05:06:44.853Z,14.13
2023-02-23T05:09:12.132Z,14.43
2023-02-23T05:11:39.352Z,13.50
2023-02-23T05:14:06.833Z,15.57
2023-02-23T05:16:34.229Z,16.00
2023-02-23T05:19:01.771Z,14.68
2023-02-23T05:21:29.072Z,14.95
2023-02-23T05:23:57.377Z,14.50
2023-02-23T05:26:24.833Z,15.77
2023-02-23T05:28:52.174Z,16.55
2023-02-23T05:31:20.688Z,15.25
2023-02-23T05:33:48.316Z,14.95
2023-02-23T05:36:17.748Z,15.95
2023-02-23T05:38:46.289Z,15.88
2023-02-23T05:41:16.409Z,15.70
2023-02-23T05:46:16.813Z,15.43
2023-02-23T05:48:44.249Z,16.60
2023-02-23T05:51:13.992Z,16.20
2023-02-23T05:53:41.976Z,17.35
2023-02-23T05:56:13.574Z,15.88
2023-02-23T05:58:40.894Z,16.70
2023-02-23T06:01:08.291Z,16.65
2023-02-23T06:03:35.870Z,16.65
2023-02-23T06:06:03.243Z,16.42
2023-02-23T06:08:30.742Z,15.93
2023-02-23T06:10:58.130Z,17.55
2023-02-23T06:13:26.410Z,16.60
2023-02-23T06:15:53.698Z,16.13
2023-02-23T06:18:22.326Z,16.83
2023-02-23T06:20:49.995Z,16.95
2023-02-23T06:23:18.956Z,16.52
2023-02-23T06:25:47.045Z,15.75
2023-02-23T06:28:15.455Z,15.63
2023-02-23T06:30:43.138Z,17.25
2023-02-23T06:33:10.449Z,17.25
2023-02-23T06:35:38.142Z,18.27
2023-02-23T06:38:06.441Z,17.13
2023-02-23T06:40:33.859Z,17.90
2023-02-23T06:43:03.581Z,18.23
2023-02-23T06:45:31.868Z,18.02
2023-02-23T06:47:59.987Z,17.33
2023-02-23T06:50:27.843Z,17.20
2023-02-23T06:52:57.646Z,18.10
2023-02-23T06:55:25.285Z,18.02
2023-02-23T06:57:53.595Z,17.45
2023-02-23T07:00:21.949Z,18.65
2023-02-23T07:02:49.432Z,18.50
2023-02-23T07:05:16.920Z,18.48
2023-02-23T07:07:45.676Z,18.13
2023-02-23T07:10:13.275Z,18.20
2023-02-23T07:12:40.720Z,19.10
2023-02-23T07:15:08.897Z,19.73
2023-02-23T07:17:36.864Z,18.35
2023-02-23T07:20:05.157Z,20.15
2023-02-23T07:22:34.179Z,19.30
2023-02-23T07:25:01.808Z,19.13
2023-02-23T07:27:29.278Z,18.23
2023-02-23T07:29:56.881Z,19.77
2023-02-23T07:32:24.564Z,18.88
2023-02-23T07:34:54.016Z,19.30
2023-02-23T07:37:22.074Z,20.10
2023-02-23T07:39:49.647Z,19.92
2023-02-23T07:42:18.136Z,20.73
2023-02-23T07:44:45.566Z,21.15
2023-02-23T07:47:13.106Z,20.75
2023-02-23T07:49:40.535Z,19.48
2023-02-23T07:52:08.401Z,19.75
2023-02-23T07:54:35.664Z,19.42
2023-02-23T07:57:03.380Z,19.63
2023-02-23T07:59:32.245Z,18.70
2023-02-23T08:01:59.620Z,20.70
2023-02-23T08:04:26.988Z,19.98
2023-02-23T08:06:55.225Z,19.20
2023-02-23T08:09:22.792Z,19.38
2023-02-23T08:11:50.215Z,20.45
2023-02-23T08:14:17.529Z,19.30
2023-02-23T08:16:45.752Z,19.25
2023-02-23T08:19:13.192Z,19.67
2023-02-23T08:21:40.674Z,19.08
2023-02-23T08:24:08.108Z,20.70
2023-02-23T08:26:38.121Z,20.27
2023-02-23T08:31:32.786Z,20.77
2023-02-23T08:34:00.299Z,20.05
2023-02-23T08:36:27.706Z,17.92
2023-02-23T08:38:55.367Z,17.60
2023-02-23T08:41:23.083Z,17.35
2023-02-23T08:43:50.355Z,18.65
2023-02-23T08:46:20.388Z,19.63
2023-02-23T08:51:15.689Z,18.40
2023-02-23T08:53:43.097Z,19.48
2023-02-23T08:56:12.875Z,41.72
2023-02-23T08:58:40.489Z,24.77
2023-02-23T09:01:07.904Z,21.73
2023-02-23T09:03:38.197Z,20.15
2023-02-23T09:06:09.815Z,19.73
2023-02-23T09:08:38.304Z,19.77
2023-02-23T09:11:05.992Z,19.95
2023-02-23T09:13:33.731Z,20.10
2023-02-23T09:16:01.285Z,28.25
2023-02-23T09:18:29.500Z,20.73
2023-02-23T09:20:57.225Z,20.75
2023-02-23T09:23:28.293Z,20.65
2023-02-23T09:25:55.634Z,21.40
2023-02-23T09:28:23.066Z,21.77
2023-02-23T09:30:50.324Z,21.90
2023-02-23T09:33:18.298Z,21.83
2023-02-23T09:35:45.647Z,20.88
2023-02-23T09:38:12.973Z,22.08
2023-02-23T09:40:52.753Z,21.88
2023-02-23T09:43:24.246Z,21.27
2023-02-23T09:46:16.254Z,21.58
2023-02-23T09:48:44.221Z,22.67
2023-02-23T09:51:17.348Z,21.95
2023-02-23T09:53:48.949Z,22.05
2023-02-23T09:56:39.264Z,22.55
2023-02-23T09:59:15.601Z,23.27
2023-02-23T10:01:49.230Z,23.15
2023-02-23T10:04:23.819Z,24.17
2023-02-23T10:06:59.983Z,25.35
2023-02-23T10:09:52.712Z,24.00
2023-02-23T10:12:30.500Z,23.58
2023-02-23T10:15:06.576Z,24.23
2023-02-23T10:18:06.311Z,23.13
2023-02-23T10:20:57.676Z,23.05
2023-02-23T10:23:34.092Z,23.30
2023-02-23T10:26:02.928Z,22.55
2023-02-23T10:28:36.762Z,22.80
2023-02-23T10:31:17.096Z,22.83
2023-02-23T10:33:44.797Z,22.58
2023-02-23T10:36:19.676Z,22.10
2023-02-23T10:38:47.292Z,23.02
2023-02-23T10:41:15.145Z,22.33
2023-02-23T10:43:42.746Z,22.83
2023-02-23T10:46:23.487Z,23.13
2023-02-23T10:48:51.375Z,23.05
2023-02-23T10:51:23.476Z,23.38
2023-02-23T10:53:53.044Z,23.58
2023-02-23T10:56:21.414Z,23.47
2023-02-23T10:59:05.633Z,23.20
2023-02-23T11:02:00.302Z,23.40
2023-02-23T11:04:31.271Z,22.73
2023-02-23T11:07:16.430Z,24.20
2023-02-23T11:09:48.154Z,23.15
2023-02-23T11:12:22.831Z,23.77
2023-02-23T11:14:52.290Z,25.52
2023-02-23T11:17:24.297Z,24.77
2023-02-23T11:19:51.879Z,26.88
2023-02-23T11:22:27.120Z,26.90
2023-02-23T11:24:55.575Z,30.42
2023-02-23T11:27:27.021Z,24.95
2023-02-23T11:29:59.285Z,25.75
2023-02-23T11:32:30.844Z,24.60
2023-02-23T11:35:31.230Z,23.90
2023-02-23T11:37:59.011Z,23.48
2023-02-23T11:40:26.234Z,23.02
2023-02-23T11:43:01.240Z,31.83
2023-02-23T11:45:34.237Z,23.25
2023-02-23T11:48:02.266Z,21.92
2023-02-23T11:50:32.590Z,22.05
2023-02-23T11:53:17.212Z,22.98
2023-02-23T11:55:55.254Z,21.40
2023-02-23T11:58:27.177Z,20.00
2023-02-23T12:01:03.565Z,20.40
2023-02-23T12:03:33.327Z,31.95
2023-02-23T12:06:02.377Z,21.33
2023-02-23T12:08:35.982Z,32.92
2023-02-23T12:11:07.298Z,36.63
2023-02-23T12:13:50.848Z,21.55
2023-02-23T12:16:24.781Z,19.15
2023-02-23T12:19:04.990Z,19.33
2023-02-23T12:24:08.157Z,19.10
2023-02-23T12:26:49.334Z,21.50
2023-02-23T12:29:33.643Z,19.92
2023-02-23T12:32:03.339Z,21.55
2023-02-23T12:34:36.468Z,20.05
2023-02-23T12:37:29.294Z,20.15
2023-02-23T12:40:02.308Z,18.77
2023-02-23T12:42:45.742Z,19.25
2023-02-23T12:45:43.358Z,17.48
2023-02-23T12:48:29.220Z,17.23
2023-02-23T12:51:07.210Z,19.90
2023-02-23T12:53:34.582Z,18.40
2023-02-23T12:56:27.467Z,18.73
2023-02-23T12:59:14.439Z,18.20
2023-02-23T13:02:00.809Z,18.10
2023-02-23T13:05:24.549Z,17.98
2023-02-23T13:08:11.584Z,18.77
2023-02-23T13:10:55.639Z,17.55
2023-02-23T13:13:31.587Z,17.25
2023-02-23T13:16:34.916Z,17.35
2023-02-23T13:19:25.278Z,16.58
2023-02-23T13:22:21.934Z,17.25
2023-02-23T13:24:49.867Z,17.98
2023-02-23T13:27:34.047Z,16.80
2023-02-23T13:30:02.326Z,16.88
2023-02-23T13:32:32.612Z,17.95
2023-02-23T13:35:14.524Z,16.55
2023-02-23T13:37:51.393Z,16.98
2023-02-23T13:40:31.143Z,16.65
2023-02-23T13:43:23.686Z,16.48
2023-02-23T13:46:14.633Z,15.75
2023-02-23T13:49:00.531Z,15.48
2023-02-23T13:51:43.799Z,15.68
2023-02-23T13:54:15.092Z,16.20
2023-02-23T13:56:47.068Z,16.50
2023-02-23T13:59:29.692Z,16.48
2023-02-23T14:01:58.011Z,15.50
2023-02-23T14:04:28.214Z,16.00
2023-02-23T14:07:01.875Z,15.52
2023-02-23T14:09:36.788Z,16.33
2023-02-23T14:12:38.970Z,16.65
2023-02-23T14:15:25.439Z,15.10
2023-02-23T14:18:15.470Z,14.25
2023-02-23T14:21:15.554Z,14.77
2023-02-23T14:24:03.150Z,14.23
2023-02-23T14:26:30.376Z,15.02
2023-02-23T14:29:20.126Z,15.70
2023-02-23T14:32:12.605Z,16.17
2023-02-23T14:35:00.693Z,14.88
2023-02-23T14:37:40.956Z,14.32
2023-02-23T14:40:15.740Z,14.95
2023-02-23T14:42:47.531Z,14.55
2023-02-23T14:45:29.240Z,15.10
2023-02-23T14:48:00.012Z,14.38
2023-02-23T14:50:30.787Z,14.10
2023-02-23T14:52:58.544Z,13.68
2023-02-23T14:55:33.055Z,13.45
2023-02-23T14:58:02.133Z,13.40
2023-02-23T15:00:33.106Z,14.30
2023-02-23T15:03:03.727Z,12.55
2023-02-23T15:05:37.355Z,13.38
2023-02-23T15:08:06.836Z,12.40
2023-02-23T15:10:39.177Z,12.50
2023-02-23T15:13:11.849Z,12.95
2023-02-23T15:15:45.394Z,13.43
2023-02-23T15:18:32.001Z,12.85
2023-02-23T15:20:59.513Z,13.25
2023-02-23T15:23:27.356Z,12.95
2023-02-23T15:25:54.965Z,13.00
2023-02-23T15:28:28.112Z,13.30
2023-02-23T15:31:02.049Z,13.25
2023-02-23T15:33:30.380Z,13.10
2023-02-23T15:36:06.905Z,12.10
2023-02-23T15:38:43.876Z,12.63
2023-02-23T15:41:39.623Z,17.52
2023-02-23T15:44:13.415Z,12.90
2023-02-23T15:46:42.109Z,12.77
2023-02-23T15:49:14.439Z,11.18
2023-02-23T15:51:50.288Z,12.15
2023-02-23T15:54:24.812Z,11.43
2023-02-23T15:56:57.238Z,11.82
2023-02-23T15:59:38.035Z,12.13
2023-02-23T16:02:16.681Z,11.82
2023-02-23T16:04:49.018Z,11.05
2023-02-23T16:07:21.986Z,10.85
2023-02-23T16:09:55.791Z,11.60
2023-02-23T16:12:32.646Z,12.07
2023-02-23T16:15:02.313Z,11.65
2023-02-23T16:17:53.701Z,11.98
2023-02-23T16:20:29.322Z,12.05
2023-02-23T16:22:58.127Z,11.55
2023-02-23T16:25:27.255Z,11.80
2023-02-23T16:28:01.335Z,12.07
2023-02-23T16:30:32.145Z,11.48
2023-02-23T16:33:24.253Z,11.85
2023-02-23T16:36:10.593Z,11.93
2023-02-23T16:38:41.161Z,11.18
2023-02-23T16:41:22.381Z,10.43
2023-02-23T16:43:52.003Z,10.80
2023-02-23T16:46:21.134Z,10.63
2023-02-23T16:48:48.940Z,11.13
2023-02-23T16:51:19.064Z,11.05
2023-02-23T16:53:46.632Z,10.27
2023-02-23T16:56:20.224Z,10.52
2023-02-23T16:58:57.173Z,10.55
2023-02-23T17:01:24.802Z,10.30
2023-02-23T17:03:54.085Z,10.15
2023-02-23T17:06:22.751Z,9.23
2023-02-23T17:08:58.093Z,8.57
2023-02-23T17:11:26.640Z,9.10
2023-02-23T17:13:54.078Z,16.55
2023-02-23T17:16:21.825Z,10.38
2023-02-23T17:18:49.339Z,9.35
2023-02-23T17:21:23.003Z,9.82
2023-02-23T17:23:51.646Z,13.55
2023-02-23T17:26:23.821Z,9.32
2023-02-23T17:28:51.860Z,10.18
2023-02-23T17:31:20.164Z,8.48
2023-02-23T17:33:48.300Z,35.75
2023-02-23T17:36:17.632Z,9.45
2023-02-23T17:38:45.153Z,35.70
2023-02-23T17:41:16.570Z,9.05
2023-02-23T17:43:44.096Z,9.10
2023-02-23T17:46:12.974Z,9.13
2023-02-23T17:48:44.486Z,9.57
2023-02-23T17:51:13.197Z,9.05
2023-02-23T17:53:40.823Z,8.77
2023-02-23T17:56:09.143Z,8.95
2023-02-23T17:58:37.459Z,9.35
2023-02-23T18:01:07.078Z,9.10
2023-02-23T18:03:36.385Z,9.45
2023-02-23T18:06:09.380Z,10.15
2023-02-23T18:08:37.907Z,9.88
2023-02-23T18:11:05.680Z,10.45
2023-02-23T18:13:34.313Z,9.95
2023-02-23T18:16:06.248Z,10.23
2023-02-23T18:18:34.161Z,11.15
2023-02-23T18:21:02.814Z,11.07
2023-02-23T18:23:37.009Z,11.82
2023-02-23T18:26:07.288Z,10.55
2023-02-23T18:28:35.307Z,11.65
2023-02-23T18:31:02.959Z,11.85
2023-02-23T18:33:31.536Z,13.73
2023-02-23T18:35:59.073Z,12.52
2023-02-23T18:38:26.596Z,12.63
2023-02-23T18:40:53.904Z,13.55
2023-02-23T18:43:21.366Z,16.40
2023-02-23T18:45:48.825Z,16.13
2023-02-23T18:48:16.394Z,15.75
2023-02-23T18:50:44.035Z,16.60
2023-02-23T18:53:11.526Z,19.58
2023-02-23T18:55:38.789Z,19.90
2023-02-23T18:58:07.824Z,21.20
2023-02-23T19:00:40.202Z,24.90
2023-02-23T19:03:07.739Z,22.73
2023-02-23T19:05:37.681Z,24.63
2023-02-23T19:08:09.558Z,24.45
2023-02-23T19:10:37.076Z,23.50
2023-02-23T19:13:08.960Z,28.15
2023-02-23T19:15:36.380Z,23.98
2023-02-23T19:18:04.195Z,22.10
2023-02-23T19:20:35.912Z,21.23
2023-02-23T19:23:03.471Z,19.30
2023-02-23T19:25:31.925Z,20.20
2023-02-23T19:28:00.049Z,20.13
2023-02-23T19:30:27.501Z,19.42
2023-02-23T19:32:54.874Z,19.95
2023-02-23T19:35:22.419Z,20.02
2023-02-23T19:37:51.823Z,20.60
2023-02-23T19:40:22.868Z,20.55
2023-02-23T19:42:51.215Z,19.58
2023-02-23T19:45:18.742Z,20.63
2023-02-23T19:47:46.352Z,19.33
2023-02-23T19:50:16.937Z,20.58
2023-02-23T19:52:45.295Z,20.10
2023-02-23T19:55:13.416Z,19.98
2023-02-23T19:57:41.213Z,19.52
2023-02-23T20:00:11.629Z,19.30
2023-02-23T20:02:42.778Z,18.08
2023-02-23T20:05:15.140Z,19.15
2023-02-23T20:07:43.354Z,19.08
2023-02-23T20:10:16.196Z,20.88
2023-02-23T20:12:44.604Z,19.38
2023-02-23T20:15:14.859Z,20.20
2023-02-23T20:17:42.592Z,21.02
2023-02-23T20:20:11.336Z,19.05
2023-02-23T20:22:41.407Z,18.08
2023-02-23T20:27:39.860Z,17.63
2023-02-23T20:30:07.811Z,18.55
2023-02-23T20:32:35.431Z,17.77
2023-02-23T20:35:03.071Z,18.23
2023-02-23T20:37:31.388Z,17.60
2023-02-23T20:39:58.922Z,18.10
2023-02-23T20:42:28.393Z,21.25
2023-02-23T20:44:56.054Z,16.97
2023-02-23T20:47:24.213Z,18.30
2023-02-23T20:49:51.563Z,25.75
2023-02-23T20:52:18.973Z,18.45
2023-02-23T20:54:46.312Z,20.20
2023-02-23T20:57:13.632Z,19.45
2023-02-23T20:59:43.301Z,19.52
2023-02-23T21:02:13.973Z,20.58
2023-02-23T21:04:44.275Z,20.52
2023-02-23T21:07:13.538Z,19.75
2023-02-23T21:09:41.030Z,22.27
2023-02-23T21:12:12.671Z,19.92
2023-02-23T21:14:40.132Z,22.80
2023-02-23T21:20:14.569Z,21.30
2023-02-23T21:22:42.042Z,22.92
2023-02-23T21:25:10.953Z,22.45
2023-02-23T21:27:38.669Z,22.90
2023-02-23T21:30:08.205Z,24.13
2023-02-23T21:32:41.321Z,24.98
2023-02-23T21:35:10.944Z,25.50
2023-02-23T21:37:39.388Z,25.40
2023-02-23T21:40:12.665Z,24.10
2023-02-23T21:42:41.714Z,24.33
2023-02-23T21:45:12.503Z,26.95
2023-02-23T21:47:41.748Z,25.08
2023-02-23T21:50:13.581Z,25.63
2023-02-23T21:52:43.690Z,28.25
2023-02-23T21:55:21.248Z,27.23
2023-02-23T21:57:49.339Z,27.42
2023-02-23T22:00:16.810Z,28.95
2023-02-23T22:02:46.736Z,28.65
2023-02-23T22:05:15.941Z,28.92
2023-02-23T22:07:52.068Z,28.15
2023-02-23T22:10:21.834Z,30.73
2023-02-23T22:12:56.702Z,30.55
2023-02-23T22:15:29.886Z,30.90
2023-02-23T22:17:57.336Z,32.00
2023-02-23T22:20:26.202Z,31.50
2023-02-23T22:22:53.684Z,32.60
2023-02-23T22:25:21.263Z,32.35
2023-02-23T22:27:48.721Z,32.80
2023-02-23T22:30:16.332Z,30.98
2023-02-23T22:32:44.453Z,33.85
2023-02-23T22:35:12.107Z,32.05
2023-02-23T22:37:40.127Z,31.13
2023-02-23T22:40:12.959Z,32.08
2023-02-23T22:42:43.277Z,31.98
2023-02-23T22:45:11.514Z,32.42
2023-02-23T22:47:39.157Z,33.30
2023-02-23T22:50:07.110Z,31.95
2023-02-23T22:52:34.788Z,33.00
2023-02-23T22:55:03.959Z,40.13
2023-02-23T22:57:31.321Z,33.65
2023-02-23T23:00:07.356Z,31.65
2023-02-23T23:02:36.387Z,32.33
2023-02-23T23:05:04.069Z,32.05
2023-02-23T23:07:31.817Z,52.08
2023-02-23T23:10:03.758Z,40.38
2023-02-23T23:12:34.401Z,46.42
2023-02-23T23:15:05.104Z,38.58
2023-02-23T23:17:32.918Z,33.85
2023-02-23T23:20:00.551Z,32.38
2023-02-23T23:22:28.142Z,32.10
2023-02-23T23:24:56.981Z,33.00
2023-02-23T23:27:24.940Z,31.95
2023-02-23T23:29:52.443Z,31.25
2023-02-23T23:32:27.485Z,33.13
2023-02-23T23:34:57.771Z,31.40
2023-02-23T23:37:29.169Z,30.15
2023-02-23T23:40:00.150Z,31.45
2023-02-23T23:42:27.696Z,31.63
2023-02-23T23:44:56.943Z,31.38
2023-02-23T23:47:24.719Z,31.87
2023-02-23T23:49:53.785Z,31.02
2023-02-23T23:52:21.213Z,31.50
2023-02-23T23:54:49.000Z,30.13
2023-02-23T23:57:17.397Z,31.67
2023-02-23T23:59:46.355Z,30.20
